sensor_id;sensor_type;location;lat;lon;timestamp;P1;durP1;ratioP1;P2;durP2;ratioP2
34497;SDS011;20744;50.938;7.286;2023-09-19T00:01:40;9.30;;;2.58;;
34497;SDS011;20744;50.938;7.286;2023-09-19T00:04:09;9.95;;;2.60;;
34497;SDS011;20744;50.938;7.286;2023-09-19T00:06:37;5.93;;;2.30;;
34497;SDS011;20744;50.938;7.286;2023-09-19T00:09:04;6.80;;;2.03;;
34497;SDS011;20744;50.938;7.286;2023-09-19T00:11:35;9.90;;;2.65;;
34497;SDS011;20744;50.938;7.286;2023-09-19T00:14:03;10.95;;;2.50;;
34497;SDS011;20744;50.938;7.286;2023-09-19T00:16:33;10.02;;;1.95;;
34497;SDS011;20744;50.938;7.286;2023-09-19T00:19:03;9.02;;;2.03;;
34497;SDS011;20744;50.938;7.286;2023-09-19T00:21:34;12.52;;;2.08;;
34497;SDS011;20744;50.938;7.286;2023-09-19T00:24:03;7.10;;;2.10;;
34497;SDS011;20744;50.938;7.286;2023-09-19T00:26:31;9.80;;;2.17;;
34497;SDS011;20744;50.938;7.286;2023-09-19T00:28:59;10.38;;;2.00;;
34497;SDS011;20744;50.938;7.286;2023-09-19T00:31:30;12.95;;;2.47;;
34497;SDS011;20744;50.938;7.286;2023-09-19T00:33:59;9.90;;;2.10;;
34497;SDS011;20744;50.938;7.286;2023-09-19T00:36:30;11.95;;;1.98;;
34497;SDS011;20744;50.938;7.286;2023-09-19T00:38:58;8.73;;;2.25;;
34497;SDS011;20744;50.938;7.286;2023-09-19T00:41:26;8.25;;;2.20;;
34497;SDS011;20744;50.938;7.286;2023-09-19T00:43:55;7.28;;;2.20;;
34497;SDS011;20744;50.938;7.286;2023-09-19T00:46:22;15.20;;;2.15;;
34497;SDS011;20744;50.938;7.286;2023-09-19T00:48:50;16.45;;;2.40;;
34497;SDS011;20744;50.938;7.286;2023-09-19T00:51:18;11.25;;;2.05;;
34497;SDS011;20744;50.938;7.286;2023-09-19T00:53:48;10.00;;;2.08;;
34497;SDS011;20744;50.938;7.286;2023-09-19T00:56:16;11.70;;;2.25;;
34497;SDS011;20744;50.938;7.286;2023-09-19T00:58:44;6.28;;;1.60;;
34497;SDS011;20744;50.938;7.286;2023-09-19T01:01:11;6.60;;;1.77;;
34497;SDS011;20744;50.938;7.286;2023-09-19T01:03:40;7.22;;;2.08;;
34497;SDS011;20744;50.938;7.286;2023-09-19T01:06:07;5.18;;;1.63;;
34497;SDS011;20744;50.938;7.286;2023-09-19T01:08:35;8.18;;;1.90;;
34497;SDS011;20744;50.938;7.286;2023-09-19T01:11:06;7.57;;;1.77;;
34497;SDS011;20744;50.938;7.286;2023-09-19T01:13:39;6.63;;;1.90;;
34497;SDS011;20744;50.938;7.286;2023-09-19T01:16:11;7.75;;;2.05;;
34497;SDS011;20744;50.938;7.286;2023-09-19T01:18:43;7.97;;;1.75;;
34497;SDS011;20744;50.938;7.286;2023-09-19T01:21:15;8.07;;;1.73;;
34497;SDS011;20744;50.938;7.286;2023-09-19T01:23:52;8.90;;;1.80;;
34497;SDS011;20744;50.938;7.286;2023-09-19T01:26:30;9.07;;;2.15;;
34497;SDS011;20744;50.938;7.286;2023-09-19T01:29:01;6.03;;;1.70;;
34497;SDS011;20744;50.938;7.286;2023-09-19T01:31:35;8.55;;;2.30;;
34497;SDS011;20744;50.938;7.286;2023-09-19T01:34:04;7.65;;;1.92;;
34497;SDS011;20744;50.938;7.286;2023-09-19T01:36:34;8.13;;;1.90;;
34497;SDS011;20744;50.938;7.286;2023-09-19T01:39:04;7.78;;;1.90;;
34497;SDS011;20744;50.938;7.286;2023-09-19T01:41:45;6.85;;;2.15;;
34497;SDS011;20744;50.938;7.286;2023-09-19T01:44:17;4.82;;;1.95;;
34497;SDS011;20744;50.938;7.286;2023-09-19T01:46:46;10.20;;;2.10;;
34497;SDS011;20744;50.938;7.286;2023-09-19T01:49:16;10.57;;;2.38;;
34497;SDS011;20744;50.938;7.286;2023-09-19T01:51:47;7.57;;;2.10;;
34497;SDS011;20744;50.938;7.286;2023-09-19T01:54:19;8.02;;;2.20;;
34497;SDS011;20744;50.938;7.286;2023-09-19T01:56:50;9.35;;;2.30;;
34497;SDS011;20744;50.938;7.286;2023-09-19T01:59:21;9.60;;;2.65;;
34497;SDS011;20744;50.938;7.286;2023-09-19T02:01:53;6.50;;;1.90;;
34497;SDS011;20744;50.938;7.286;2023-09-19T02:04:21;9.43;;;2.08;;
34497;SDS011;20744;50.938;7.286;2023-09-19T02:06:49;7.65;;;1.92;;
34497;SDS011;20744;50.938;7.286;2023-09-19T02:09:16;7.32;;;2.15;;
34497;SDS011;20744;50.938;7.286;2023-09-19T02:11:44;10.77;;;2.20;;
34497;SDS011;20744;50.938;7.286;2023-09-19T02:14:11;8.20;;;2.10;;
34497;SDS011;20744;50.938;7.286;2023-09-19T02:16:40;11.40;;;2.00;;
34497;SDS011;20744;50.938;7.286;2023-09-19T02:19:08;6.85;;;2.25;;
34497;SDS011;20744;50.938;7.286;2023-09-19T02:21:35;13.68;;;2.45;;
34497;SDS011;20744;50.938;7.286;2023-09-19T02:24:05;20.10;;;2.67;;
34497;SDS011;20744;50.938;7.286;2023-09-19T02:26:35;13.05;;;2.03;;
34497;SDS011;20744;50.938;7.286;2023-09-19T02:29:02;13.98;;;2.53;;
34497;SDS011;20744;50.938;7.286;2023-09-19T02:31:30;9.93;;;2.10;;
34497;SDS011;20744;50.938;7.286;2023-09-19T02:33:57;10.43;;;1.98;;
34497;SDS011;20744;50.938;7.286;2023-09-19T02:36:26;16.35;;;2.85;;
34497;SDS011;20744;50.938;7.286;2023-09-19T02:38:55;11.18;;;2.45;;
34497;SDS011;20744;50.938;7.286;2023-09-19T02:41:22;11.65;;;2.30;;
34497;SDS011;20744;50.938;7.286;2023-09-19T02:43:50;9.95;;;2.17;;
34497;SDS011;20744;50.938;7.286;2023-09-19T02:46:17;8.18;;;2.33;;
34497;SDS011;20744;50.938;7.286;2023-09-19T02:48:44;11.75;;;2.30;;
34497;SDS011;20744;50.938;7.286;2023-09-19T02:51:12;11.63;;;2.35;;
34497;SDS011;20744;50.938;7.286;2023-09-19T02:53:41;11.07;;;2.45;;
34497;SDS011;20744;50.938;7.286;2023-09-19T02:56:08;15.15;;;2.42;;
34497;SDS011;20744;50.938;7.286;2023-09-19T02:58:38;7.78;;;1.77;;
34497;SDS011;20744;50.938;7.286;2023-09-19T03:01:09;12.15;;;1.95;;
34497;SDS011;20744;50.938;7.286;2023-09-19T03:03:37;20.10;;;2.67;;
34497;SDS011;20744;50.938;7.286;2023-09-19T03:06:06;15.15;;;2.67;;
34497;SDS011;20744;50.938;7.286;2023-09-19T03:08:34;9.77;;;2.17;;
34497;SDS011;20744;50.938;7.286;2023-09-19T03:11:04;7.53;;;1.85;;
34497;SDS011;20744;50.938;7.286;2023-09-19T03:13:34;8.25;;;2.20;;
34497;SDS011;20744;50.938;7.286;2023-09-19T03:16:03;15.35;;;2.83;;
34497;SDS011;20744;50.938;7.286;2023-09-19T03:18:33;16.33;;;2.47;;
34497;SDS011;20744;50.938;7.286;2023-09-19T03:21:00;13.02;;;2.40;;
34497;SDS011;20744;50.938;7.286;2023-09-19T03:23:28;10.93;;;2.83;;
34497;SDS011;20744;50.938;7.286;2023-09-19T03:25:55;12.32;;;2.80;;
34497;SDS011;20744;50.938;7.286;2023-09-19T03:28:25;19.10;;;2.83;;
34497;SDS011;20744;50.938;7.286;2023-09-19T03:30:59;18.25;;;2.72;;
34497;SDS011;20744;50.938;7.286;2023-09-19T03:33:26;13.32;;;2.30;;
34497;SDS011;20744;50.938;7.286;2023-09-19T03:35:56;11.95;;;2.08;;
34497;SDS011;20744;50.938;7.286;2023-09-19T03:38:24;16.52;;;2.65;;
34497;SDS011;20744;50.938;7.286;2023-09-19T03:40:51;11.75;;;2.30;;
34497;SDS011;20744;50.938;7.286;2023-09-19T03:43:19;13.15;;;2.50;;
34497;SDS011;20744;50.938;7.286;2023-09-19T03:45:47;14.30;;;2.50;;
34497;SDS011;20744;50.938;7.286;2023-09-19T03:48:16;13.00;;;2.33;;
34497;SDS011;20744;50.938;7.286;2023-09-19T03:50:43;17.88;;;2.72;;
34497;SDS011;20744;50.938;7.286;2023-09-19T03:53:10;11.93;;;2.53;;
34497;SDS011;20744;50.938;7.286;2023-09-19T03:55:38;12.50;;;2.60;;
34497;SDS011;20744;50.938;7.286;2023-09-19T03:58:05;21.55;;;2.47;;
34497;SDS011;20744;50.938;7.286;2023-09-19T04:00:33;20.77;;;2.80;;
34497;SDS011;20744;50.938;7.286;2023-09-19T04:03:01;16.70;;;3.08;;
34497;SDS011;20744;50.938;7.286;2023-09-19T04:05:31;10.98;;;1.98;;
34497;SDS011;20744;50.938;7.286;2023-09-19T04:07:59;18.15;;;2.35;;
34497;SDS011;20744;50.938;7.286;2023-09-19T04:10:26;21.73;;;2.60;;
34497;SDS011;20744;50.938;7.286;2023-09-19T04:12:53;13.57;;;2.70;;
34497;SDS011;20744;50.938;7.286;2023-09-19T04:15:21;18.10;;;2.65;;
34497;SDS011;20744;50.938;7.286;2023-09-19T04:17:48;15.13;;;2.60;;
34497;SDS011;20744;50.938;7.286;2023-09-19T04:20:19;17.13;;;2.97;;
34497;SDS011;20744;50.938;7.286;2023-09-19T04:22:47;16.15;;;3.03;;
34497;SDS011;20744;50.938;7.286;2023-09-19T04:25:14;17.13;;;3.17;;
34497;SDS011;20744;50.938;7.286;2023-09-19T04:27:42;19.00;;;3.15;;
34497;SDS011;20744;50.938;7.286;2023-09-19T04:30:09;18.42;;;3.05;;
34497;SDS011;20744;50.938;7.286;2023-09-19T04:32:37;17.15;;;2.95;;
34497;SDS011;20744;50.938;7.286;2023-09-19T04:35:08;13.38;;;2.80;;
34497;SDS011;20744;50.938;7.286;2023-09-19T04:37:38;14.15;;;2.92;;
34497;SDS011;20744;50.938;7.286;2023-09-19T04:40:07;13.25;;;2.40;;
34497;SDS011;20744;50.938;7.286;2023-09-19T04:42:38;16.38;;;2.85;;
34497;SDS011;20744;50.938;7.286;2023-09-19T04:45:06;15.73;;;2.97;;
34497;SDS011;20744;50.938;7.286;2023-09-19T04:47:35;11.00;;;2.58;;
34497;SDS011;20744;50.938;7.286;2023-09-19T04:50:05;19.40;;;2.78;;
34497;SDS011;20744;50.938;7.286;2023-09-19T04:52:33;11.95;;;2.55;;
34497;SDS011;20744;50.938;7.286;2023-09-19T04:55:02;14.40;;;2.72;;
34497;SDS011;20744;50.938;7.286;2023-09-19T04:57:29;12.77;;;2.15;;
34497;SDS011;20744;50.938;7.286;2023-09-19T04:59:57;14.55;;;2.45;;
34497;SDS011;20744;50.938;7.286;2023-09-19T05:02:25;13.68;;;2.72;;
34497;SDS011;20744;50.938;7.286;2023-09-19T05:04:53;18.20;;;2.55;;
34497;SDS011;20744;50.938;7.286;2023-09-19T05:07:20;16.42;;;2.60;;
34497;SDS011;20744;50.938;7.286;2023-09-19T05:09:49;16.33;;;2.63;;
34497;SDS011;20744;50.938;7.286;2023-09-19T05:12:17;14.32;;;2.42;;
34497;SDS011;20744;50.938;7.286;2023-09-19T05:14:45;11.38;;;2.45;;
34497;SDS011;20744;50.938;7.286;2023-09-19T05:17:12;17.80;;;2.55;;
34497;SDS011;20744;50.938;7.286;2023-09-19T05:19:42;17.95;;;2.67;;
34497;SDS011;20744;50.938;7.286;2023-09-19T05:22:09;11.05;;;2.25;;
34497;SDS011;20744;50.938;7.286;2023-09-19T05:24:37;23.02;;;3.20;;
34497;SDS011;20744;50.938;7.286;2023-09-19T05:27:05;14.70;;;2.75;;
34497;SDS011;20744;50.938;7.286;2023-09-19T05:29:34;10.75;;;2.40;;
34497;SDS011;20744;50.938;7.286;2023-09-19T05:32:03;12.77;;;2.22;;
34497;SDS011;20744;50.938;7.286;2023-09-19T05:34:30;17.63;;;2.83;;
34497;SDS011;20744;50.938;7.286;2023-09-19T05:36:58;14.05;;;2.47;;
34497;SDS011;20744;50.938;7.286;2023-09-19T05:39:25;10.35;;;2.20;;
34497;SDS011;20744;50.938;7.286;2023-09-19T05:41:52;16.38;;;2.97;;
34497;SDS011;20744;50.938;7.286;2023-09-19T05:44:20;15.82;;;2.50;;
34497;SDS011;20744;50.938;7.286;2023-09-19T05:46:48;18.48;;;2.88;;
34497;SDS011;20744;50.938;7.286;2023-09-19T05:49:17;10.65;;;2.60;;
34497;SDS011;20744;50.938;7.286;2023-09-19T05:51:46;15.10;;;2.47;;
34497;SDS011;20744;50.938;7.286;2023-09-19T05:54:14;11.02;;;2.13;;
34497;SDS011;20744;50.938;7.286;2023-09-19T05:56:42;14.45;;;2.80;;
34497;SDS011;20744;50.938;7.286;2023-09-19T05:59:12;13.82;;;2.90;;
34497;SDS011;20744;50.938;7.286;2023-09-19T06:01:40;12.55;;;2.58;;
34497;SDS011;20744;50.938;7.286;2023-09-19T06:04:09;13.57;;;2.63;;
34497;SDS011;20744;50.938;7.286;2023-09-19T06:06:36;14.00;;;2.53;;
34497;SDS011;20744;50.938;7.286;2023-09-19T06:09:05;17.17;;;2.38;;
34497;SDS011;20744;50.938;7.286;2023-09-19T06:11:33;15.25;;;2.55;;
34497;SDS011;20744;50.938;7.286;2023-09-19T06:14:00;16.33;;;2.63;;
34497;SDS011;20744;50.938;7.286;2023-09-19T06:16:28;19.65;;;2.58;;
34497;SDS011;20744;50.938;7.286;2023-09-19T06:18:57;14.35;;;2.67;;
34497;SDS011;20744;50.938;7.286;2023-09-19T06:21:26;7.82;;;2.05;;
34497;SDS011;20744;50.938;7.286;2023-09-19T06:23:54;18.48;;;2.50;;
34497;SDS011;20744;50.938;7.286;2023-09-19T06:26:23;17.95;;;2.55;;
34497;SDS011;20744;50.938;7.286;2023-09-19T06:28:51;14.27;;;3.00;;
34497;SDS011;20744;50.938;7.286;2023-09-19T06:31:20;20.20;;;2.90;;
34497;SDS011;20744;50.938;7.286;2023-09-19T06:33:51;12.05;;;2.53;;
34497;SDS011;20744;50.938;7.286;2023-09-19T06:36:18;12.77;;;2.33;;
34497;SDS011;20744;50.938;7.286;2023-09-19T06:38:47;16.40;;;3.05;;
34497;SDS011;20744;50.938;7.286;2023-09-19T06:41:16;13.52;;;2.67;;
34497;SDS011;20744;50.938;7.286;2023-09-19T06:43:44;14.65;;;3.03;;
34497;SDS011;20744;50.938;7.286;2023-09-19T06:46:11;14.35;;;2.45;;
34497;SDS011;20744;50.938;7.286;2023-09-19T06:48:39;12.82;;;2.72;;
34497;SDS011;20744;50.938;7.286;2023-09-19T06:51:06;8.88;;;2.47;;
34497;SDS011;20744;50.938;7.286;2023-09-19T06:53:35;14.27;;;2.83;;
34497;SDS011;20744;50.938;7.286;2023-09-19T06:56:03;11.05;;;2.83;;
34497;SDS011;20744;50.938;7.286;2023-09-19T06:58:31;12.85;;;2.63;;
34497;SDS011;20744;50.938;7.286;2023-09-19T07:01:01;12.20;;;2.05;;
34497;SDS011;20744;50.938;7.286;2023-09-19T07:03:29;12.52;;;2.90;;
34497;SDS011;20744;50.938;7.286;2023-09-19T07:05:58;9.32;;;2.60;;
34497;SDS011;20744;50.938;7.286;2023-09-19T07:08:25;12.63;;;2.40;;
34497;SDS011;20744;50.938;7.286;2023-09-19T07:10:53;9.98;;;2.50;;
34497;SDS011;20744;50.938;7.286;2023-09-19T07:13:22;8.40;;;2.40;;
34497;SDS011;20744;50.938;7.286;2023-09-19T07:15:50;15.00;;;2.50;;
34497;SDS011;20744;50.938;7.286;2023-09-19T07:18:17;12.55;;;2.72;;
34497;SDS011;20744;50.938;7.286;2023-09-19T07:20:45;12.70;;;2.45;;
34497;SDS011;20744;50.938;7.286;2023-09-19T07:23:15;13.32;;;2.80;;
34497;SDS011;20744;50.938;7.286;2023-09-19T07:25:43;12.73;;;2.47;;
34497;SDS011;20744;50.938;7.286;2023-09-19T07:28:11;14.73;;;2.70;;
34497;SDS011;20744;50.938;7.286;2023-09-19T07:30:40;17.92;;;3.40;;
34497;SDS011;20744;50.938;7.286;2023-09-19T07:33:07;20.05;;;2.80;;
34497;SDS011;20744;50.938;7.286;2023-09-19T07:35:36;15.32;;;2.80;;
34497;SDS011;20744;50.938;7.286;2023-09-19T07:38:06;8.90;;;2.50;;
34497;SDS011;20744;50.938;7.286;2023-09-19T07:40:33;16.58;;;2.65;;
34497;SDS011;20744;50.938;7.286;2023-09-19T07:43:01;12.27;;;2.55;;
34497;SDS011;20744;50.938;7.286;2023-09-19T07:45:29;18.33;;;2.60;;
34497;SDS011;20744;50.938;7.286;2023-09-19T07:47:58;14.30;;;2.47;;
34497;SDS011;20744;50.938;7.286;2023-09-19T07:50:26;11.48;;;2.13;;
34497;SDS011;20744;50.938;7.286;2023-09-19T07:52:53;17.38;;;2.60;;
34497;SDS011;20744;50.938;7.286;2023-09-19T07:55:21;10.70;;;2.17;;
34497;SDS011;20744;50.938;7.286;2023-09-19T07:57:50;15.18;;;2.58;;
34497;SDS011;20744;50.938;7.286;2023-09-19T08:00:18;12.52;;;2.60;;
34497;SDS011;20744;50.938;7.286;2023-09-19T08:02:46;12.10;;;2.28;;
34497;SDS011;20744;50.938;7.286;2023-09-19T08:05:15;13.88;;;2.42;;
34497;SDS011;20744;50.938;7.286;2023-09-19T08:07:43;9.10;;;2.60;;
34497;SDS011;20744;50.938;7.286;2023-09-19T08:10:13;13.07;;;2.70;;
34497;SDS011;20744;50.938;7.286;2023-09-19T08:12:42;18.38;;;2.40;;
34497;SDS011;20744;50.938;7.286;2023-09-19T08:15:12;9.30;;;2.30;;
34497;SDS011;20744;50.938;7.286;2023-09-19T08:17:40;12.35;;;2.25;;
34497;SDS011;20744;50.938;7.286;2023-09-19T08:20:07;16.80;;;2.75;;
34497;SDS011;20744;50.938;7.286;2023-09-19T08:22:42;14.98;;;2.47;;
34497;SDS011;20744;50.938;7.286;2023-09-19T08:25:11;13.60;;;2.70;;
34497;SDS011;20744;50.938;7.286;2023-09-19T08:27:38;13.40;;;2.40;;
34497;SDS011;20744;50.938;7.286;2023-09-19T08:30:06;10.55;;;2.67;;
34497;SDS011;20744;50.938;7.286;2023-09-19T08:32:33;13.68;;;2.60;;
34497;SDS011;20744;50.938;7.286;2023-09-19T08:35:01;12.65;;;2.47;;
34497;SDS011;20744;50.938;7.286;2023-09-19T08:37:29;16.50;;;2.90;;
34497;SDS011;20744;50.938;7.286;2023-09-19T08:39:59;9.20;;;2.10;;
34497;SDS011;20744;50.938;7.286;2023-09-19T08:42:26;20.90;;;3.00;;
34497;SDS011;20744;50.938;7.286;2023-09-19T08:44:54;16.17;;;2.80;;
34497;SDS011;20744;50.938;7.286;2023-09-19T08:47:25;12.70;;;2.53;;
34497;SDS011;20744;50.938;7.286;2023-09-19T08:49:58;16.05;;;2.60;;
34497;SDS011;20744;50.938;7.286;2023-09-19T08:52:31;15.80;;;2.97;;
34497;SDS011;20744;50.938;7.286;2023-09-19T08:55:02;15.65;;;2.85;;
34497;SDS011;20744;50.938;7.286;2023-09-19T08:57:35;12.20;;;2.35;;
34497;SDS011;20744;50.938;7.286;2023-09-19T09:00:07;13.05;;;2.63;;
34497;SDS011;20744;50.938;7.286;2023-09-19T09:02:37;13.27;;;2.95;;
34497;SDS011;20744;50.938;7.286;2023-09-19T09:05:06;12.00;;;2.40;;
34497;SDS011;20744;50.938;7.286;2023-09-19T09:07:35;12.77;;;2.65;;
34497;SDS011;20744;50.938;7.286;2023-09-19T09:10:04;12.27;;;2.00;;
34497;SDS011;20744;50.938;7.286;2023-09-19T09:12:32;13.43;;;2.50;;
34497;SDS011;20744;50.938;7.286;2023-09-19T09:15:01;15.35;;;2.45;;
34497;SDS011;20744;50.938;7.286;2023-09-19T09:17:29;9.02;;;2.40;;
34497;SDS011;20744;50.938;7.286;2023-09-19T09:19:56;10.38;;;2.67;;
34497;SDS011;20744;50.938;7.286;2023-09-19T09:22:24;9.45;;;2.15;;
34497;SDS011;20744;50.938;7.286;2023-09-19T09:24:52;11.80;;;2.05;;
34497;SDS011;20744;50.938;7.286;2023-09-19T09:27:21;13.15;;;2.15;;
34497;SDS011;20744;50.938;7.286;2023-09-19T09:29:50;15.00;;;2.20;;
34497;SDS011;20744;50.938;7.286;2023-09-19T09:32:20;6.75;;;1.70;;
34497;SDS011;20744;50.938;7.286;2023-09-19T09:34:48;11.25;;;2.42;;
34497;SDS011;20744;50.938;7.286;2023-09-19T09:37:16;11.70;;;2.33;;
34497;SDS011;20744;50.938;7.286;2023-09-19T09:39:49;13.05;;;2.35;;
34497;SDS011;20744;50.938;7.286;2023-09-19T09:42:33;9.73;;;2.20;;
34497;SDS011;20744;50.938;7.286;2023-09-19T09:45:16;9.52;;;2.25;;
34497;SDS011;20744;50.938;7.286;2023-09-19T09:47:53;9.00;;;1.92;;
34497;SDS011;20744;50.938;7.286;2023-09-19T09:50:24;11.82;;;2.50;;
34497;SDS011;20744;50.938;7.286;2023-09-19T09:52:54;9.38;;;1.90;;
34497;SDS011;20744;50.938;7.286;2023-09-19T09:55:32;11.48;;;1.95;;
34497;SDS011;20744;50.938;7.286;2023-09-19T09:58:21;12.90;;;2.00;;
34497;SDS011;20744;50.938;7.286;2023-09-19T10:00:54;10.35;;;2.22;;
34497;SDS011;20744;50.938;7.286;2023-09-19T10:03:30;7.00;;;1.55;;
34497;SDS011;20744;50.938;7.286;2023-09-19T10:05:58;11.15;;;2.40;;
34497;SDS011;20744;50.938;7.286;2023-09-19T10:11:12;8.90;;;2.13;;
34497;SDS011;20744;50.938;7.286;2023-09-19T10:13:43;7.13;;;1.90;;
34497;SDS011;20744;50.938;7.286;2023-09-19T10:16:12;8.43;;;2.10;;
34497;SDS011;20744;50.938;7.286;2023-09-19T10:18:40;9.20;;;1.85;;
34497;SDS011;20744;50.938;7.286;2023-09-19T10:21:08;7.88;;;1.98;;
34497;SDS011;20744;50.938;7.286;2023-09-19T10:23:36;5.82;;;1.80;;
34497;SDS011;20744;50.938;7.286;2023-09-19T10:26:05;8.75;;;2.10;;
34497;SDS011;20744;50.938;7.286;2023-09-19T10:28:34;9.40;;;1.80;;
34497;SDS011;20744;50.938;7.286;2023-09-19T10:31:06;10.60;;;2.25;;
34497;SDS011;20744;50.938;7.286;2023-09-19T10:33:39;7.07;;;1.88;;
34497;SDS011;20744;50.938;7.286;2023-09-19T10:36:08;10.48;;;2.22;;
34497;SDS011;20744;50.938;7.286;2023-09-19T10:38:37;6.22;;;1.60;;
34497;SDS011;20744;50.938;7.286;2023-09-19T10:41:06;11.30;;;2.00;;
34497;SDS011;20744;50.938;7.286;2023-09-19T10:43:35;9.77;;;1.73;;
34497;SDS011;20744;50.938;7.286;2023-09-19T10:46:11;10.32;;;1.92;;
34497;SDS011;20744;50.938;7.286;2023-09-19T10:48:38;9.60;;;1.80;;
34497;SDS011;20744;50.938;7.286;2023-09-19T10:51:09;7.78;;;1.80;;
34497;SDS011;20744;50.938;7.286;2023-09-19T10:53:42;8.20;;;1.67;;
34497;SDS011;20744;50.938;7.286;2023-09-19T10:56:11;15.57;;;2.20;;
34497;SDS011;20744;50.938;7.286;2023-09-19T10:58:44;12.13;;;1.80;;
34497;SDS011;20744;50.938;7.286;2023-09-19T11:01:13;11.68;;;2.00;;
34497;SDS011;20744;50.938;7.286;2023-09-19T11:03:40;9.38;;;1.95;;
34497;SDS011;20744;50.938;7.286;2023-09-19T11:06:10;9.77;;;2.08;;
34497;SDS011;20744;50.938;7.286;2023-09-19T11:11:48;10.70;;;2.35;;
34497;SDS011;20744;50.938;7.286;2023-09-19T11:14:39;11.32;;;1.73;;
34497;SDS011;20744;50.938;7.286;2023-09-19T11:23:20;8.25;;;2.08;;
34497;SDS011;20744;50.938;7.286;2023-09-19T11:25:53;10.65;;;2.05;;
34497;SDS011;20744;50.938;7.286;2023-09-19T11:28:33;8.35;;;1.75;;
34497;SDS011;20744;50.938;7.286;2023-09-19T11:33:49;10.07;;;2.05;;
34497;SDS011;20744;50.938;7.286;2023-09-19T11:36:37;6.50;;;1.70;;
34497;SDS011;20744;50.938;7.286;2023-09-19T11:39:06;5.38;;;1.55;;
34497;SDS011;20744;50.938;7.286;2023-09-19T11:41:46;6.70;;;1.83;;
34497;SDS011;20744;50.938;7.286;2023-09-19T11:44:33;5.88;;;1.55;;
34497;SDS011;20744;50.938;7.286;2023-09-19T11:47:03;9.55;;;1.80;;
34497;SDS011;20744;50.938;7.286;2023-09-19T11:49:31;10.13;;;2.20;;
34497;SDS011;20744;50.938;7.286;2023-09-19T11:52:00;8.98;;;1.80;;
34497;SDS011;20744;50.938;7.286;2023-09-19T11:54:34;6.22;;;1.67;;
34497;SDS011;20744;50.938;7.286;2023-09-19T11:57:07;6.65;;;1.98;;
34497;SDS011;20744;50.938;7.286;2023-09-19T11:59:38;8.57;;;2.03;;
34497;SDS011;20744;50.938;7.286;2023-09-19T12:02:06;8.30;;;2.08;;
34497;SDS011;20744;50.938;7.286;2023-09-19T12:04:36;8.60;;;2.35;;
34497;SDS011;20744;50.938;7.286;2023-09-19T12:07:05;8.32;;;1.63;;
34497;SDS011;20744;50.938;7.286;2023-09-19T12:09:38;6.90;;;1.70;;
34497;SDS011;20744;50.938;7.286;2023-09-19T12:12:09;10.10;;;1.83;;
34497;SDS011;20744;50.938;7.286;2023-09-19T12:14:37;6.13;;;1.88;;
34497;SDS011;20744;50.938;7.286;2023-09-19T12:17:07;6.22;;;2.38;;
34497;SDS011;20744;50.938;7.286;2023-09-19T12:19:34;8.20;;;1.88;;
34497;SDS011;20744;50.938;7.286;2023-09-19T12:22:03;7.28;;;1.80;;
34497;SDS011;20744;50.938;7.286;2023-09-19T12:24:31;7.15;;;1.90;;
34497;SDS011;20744;50.938;7.286;2023-09-19T12:27:01;9.27;;;1.67;;
34497;SDS011;20744;50.938;7.286;2023-09-19T12:29:30;12.63;;;2.03;;
34497;SDS011;20744;50.938;7.286;2023-09-19T12:31:59;7.65;;;1.80;;
34497;SDS011;20744;50.938;7.286;2023-09-19T12:34:30;8.65;;;1.73;;
34497;SDS011;20744;50.938;7.286;2023-09-19T12:37:06;6.10;;;1.60;;
34497;SDS011;20744;50.938;7.286;2023-09-19T12:39:38;6.82;;;2.03;;
34497;SDS011;20744;50.938;7.286;2023-09-19T12:42:08;6.43;;;1.60;;
34497;SDS011;20744;50.938;7.286;2023-09-19T12:44:39;7.82;;;1.85;;
34497;SDS011;20744;50.938;7.286;2023-09-19T12:47:09;7.65;;;1.88;;
34497;SDS011;20744;50.938;7.286;2023-09-19T12:50:04;9.55;;;2.08;;
34497;SDS011;20744;50.938;7.286;2023-09-19T12:52:24;6.88;;;1.75;;
34497;SDS011;20744;50.938;7.286;2023-09-19T12:54:51;8.10;;;2.22;;
34497;SDS011;20744;50.938;7.286;2023-09-19T12:57:24;5.47;;;1.70;;
34497;SDS011;20744;50.938;7.286;2023-09-19T12:59:52;8.07;;;1.90;;
34497;SDS011;20744;50.938;7.286;2023-09-19T13:02:19;5.90;;;1.52;;
34497;SDS011;20744;50.938;7.286;2023-09-19T13:04:52;9.70;;;1.92;;
34497;SDS011;20744;50.938;7.286;2023-09-19T13:07:40;6.47;;;1.80;;
34497;SDS011;20744;50.938;7.286;2023-09-19T13:10:10;10.15;;;2.03;;
34497;SDS011;20744;50.938;7.286;2023-09-19T13:12:42;7.55;;;1.70;;
34497;SDS011;20744;50.938;7.286;2023-09-19T13:15:12;11.80;;;2.00;;
34497;SDS011;20744;50.938;7.286;2023-09-19T13:17:44;9.80;;;2.10;;
34497;SDS011;20744;50.938;7.286;2023-09-19T13:20:20;5.32;;;1.65;;
34497;SDS011;20744;50.938;7.286;2023-09-19T13:22:52;8.43;;;1.80;;
34497;SDS011;20744;50.938;7.286;2023-09-19T13:25:25;6.10;;;2.00;;
34497;SDS011;20744;50.938;7.286;2023-09-19T13:27:56;4.88;;;1.30;;
34497;SDS011;20744;50.938;7.286;2023-09-19T13:30:25;6.40;;;1.60;;
34497;SDS011;20744;50.938;7.286;2023-09-19T13:33:04;8.10;;;1.42;;
34497;SDS011;20744;50.938;7.286;2023-09-19T13:35:32;6.47;;;1.33;;
34497;SDS011;20744;50.938;7.286;2023-09-19T13:37:59;5.75;;;1.65;;
34497;SDS011;20744;50.938;7.286;2023-09-19T13:40:27;5.93;;;1.77;;
34497;SDS011;20744;50.938;7.286;2023-09-19T13:42:57;5.97;;;1.40;;
34497;SDS011;20744;50.938;7.286;2023-09-19T13:45:24;5.00;;;1.20;;
34497;SDS011;20744;50.938;7.286;2023-09-19T13:47:52;8.40;;;1.40;;
34497;SDS011;20744;50.938;7.286;2023-09-19T13:50:20;5.15;;;1.38;;
34497;SDS011;20744;50.938;7.286;2023-09-19T13:52:49;5.25;;;1.08;;
34497;SDS011;20744;50.938;7.286;2023-09-19T13:55:18;8.75;;;1.40;;
34497;SDS011;20744;50.938;7.286;2023-09-19T13:57:45;5.05;;;1.33;;
34497;SDS011;20744;50.938;7.286;2023-09-19T14:00:16;5.22;;;1.42;;
34497;SDS011;20744;50.938;7.286;2023-09-19T14:02:44;7.07;;;1.27;;
34497;SDS011;20744;50.938;7.286;2023-09-19T14:05:14;7.80;;;1.17;;
34497;SDS011;20744;50.938;7.286;2023-09-19T14:07:42;6.07;;;1.30;;
34497;SDS011;20744;50.938;7.286;2023-09-19T14:10:10;7.03;;;1.25;;
34497;SDS011;20744;50.938;7.286;2023-09-19T14:12:39;3.03;;;1.10;;
34497;SDS011;20744;50.938;7.286;2023-09-19T14:15:07;5.10;;;1.17;;
34497;SDS011;20744;50.938;7.286;2023-09-19T14:17:37;5.72;;;1.15;;
34497;SDS011;20744;50.938;7.286;2023-09-19T14:20:04;4.93;;;1.10;;
34497;SDS011;20744;50.938;7.286;2023-09-19T14:22:32;4.00;;;1.30;;
34497;SDS011;20744;50.938;7.286;2023-09-19T14:25:00;4.28;;;1.13;;
34497;SDS011;20744;50.938;7.286;2023-09-19T14:27:27;3.33;;;1.02;;
34497;SDS011;20744;50.938;7.286;2023-09-19T14:29:54;5.30;;;1.05;;
34497;SDS011;20744;50.938;7.286;2023-09-19T14:32:22;5.70;;;1.25;;
34497;SDS011;20744;50.938;7.286;2023-09-19T14:34:51;8.60;;;1.42;;
34497;SDS011;20744;50.938;7.286;2023-09-19T14:37:18;7.70;;;1.02;;
34497;SDS011;20744;50.938;7.286;2023-09-19T14:39:46;4.53;;;0.90;;
34497;SDS011;20744;50.938;7.286;2023-09-19T14:42:14;7.50;;;1.38;;
34497;SDS011;20744;50.938;7.286;2023-09-19T14:44:42;4.03;;;1.02;;
34497;SDS011;20744;50.938;7.286;2023-09-19T14:47:12;5.43;;;1.48;;
34497;SDS011;20744;50.938;7.286;2023-09-19T14:49:39;5.70;;;1.02;;
34497;SDS011;20744;50.938;7.286;2023-09-19T14:52:08;8.48;;;1.38;;
34497;SDS011;20744;50.938;7.286;2023-09-19T14:54:37;4.47;;;1.30;;
34497;SDS011;20744;50.938;7.286;2023-09-19T14:57:06;4.93;;;1.00;;
34497;SDS011;20744;50.938;7.286;2023-09-19T14:59:33;7.70;;;1.00;;
34497;SDS011;20744;50.938;7.286;2023-09-19T15:02:02;6.97;;;1.25;;
34497;SDS011;20744;50.938;7.286;2023-09-19T15:04:30;7.50;;;1.48;;
34497;SDS011;20744;50.938;7.286;2023-09-19T15:06:58;6.50;;;1.10;;
34497;SDS011;20744;50.938;7.286;2023-09-19T15:09:27;5.00;;;0.98;;